Time;durP1;ratioP1;P1;durP2;ratioP2;P2;SDS_P1;SDS_P2;PMS_P1;PMS_P2;Temp;Humidity;BMP_temperature;BMP_pressure;BME280_temperature;BME280_humidity;BME280_pressure;Samples;Min_cycle;Max_cycle;Signal;HPM_P1;HPM_P2
2024/04/15 00:01:16;;;;;;;5.50;1.30;;;12.60;61.30;;;;;;5487220;26;20442;-36
2024/04/15 00:03:42;;;;;;;3.33;1.20;;;12.60;61.30;;;;;;5487999;26;20031;-37
2024/04/15 00:06:09;;;;;;;3.17;1.08;;;12.50;61.40;;;;;;5487030;26;20458;-36
2024/04/15 00:08:34;;;;;;;4.13;1.05;;;12.50;61.60;;;;;;5486871;26;20010;-36
2024/04/15 00:11:04;;;;;;;2.75;1.08;;;12.50;62.30;;;;;;5487258;26;20013;-37
2024/04/15 00:13:29;;;;;;;3.65;1.02;;;12.40;61.80;;;;;;5487245;26;20006;-36
2024/04/15 00:15:56;;;;;;;3.10;1.10;;;12.40;61.80;;;;;;5486767;26;20515;-36
2024/04/15 00:18:22;;;;;;;4.45;0.93;;;12.30;61.90;;;;;;5487029;26;19994;-36
2024/04/15 00:20:55;;;;;;;5.07;1.33;;;12.30;62.10;;;;;;5486860;26;19998;-36
2024/04/15 00:23:20;;;;;;;4.95;1.05;;;12.30;62.20;;;;;;5487165;26;20002;-35
2024/04/15 00:25:46;;;;;;;5.60;1.10;;;12.20;62.30;;;;;;5487335;26;19998;-38
2024/04/15 00:28:12;;;;;;;3.97;0.93;;;12.20;62.40;;;;;;5486798;26;20026;-37
2024/04/15 00:30:37;;;;;;;2.95;1.20;;;12.20;62.50;;;;;;5486530;26;19998;-37
2024/04/15 00:33:03;;;;;;;4.25;1.15;;;12.10;62.50;;;;;;5487038;26;20464;-38
2024/04/15 00:35:29;;;;;;;4.22;1.10;;;12.10;62.70;;;;;;5487144;26;20380;-35
2024/04/15 00:37:54;;;;;;;3.10;1.20;;;12.10;62.90;;;;;;5487180;26;20075;-36
2024/04/15 00:40:20;;;;;;;3.28;1.30;;;12.00;63.00;;;;;;5486958;26;20035;-36
2024/04/15 00:42:45;;;;;;;3.72;1.33;;;12.00;63.20;;;;;;5487209;26;20009;-42
2024/04/15 00:45:28;;;;;;;3.42;1.27;;;12.00;63.60;;;;;;5486555;26;19998;-35
2024/04/15 00:47:54;;;;;;;5.90;1.73;;;11.90;64.20;;;;;;5486930;26;19998;-38
2024/04/15 00:50:19;;;;;;;5.63;1.52;;;11.80;64.30;;;;;;5486811;26;20013;-37
2024/04/15 00:52:45;;;;;;;5.50;1.60;;;11.90;64.70;;;;;;5486838;26;20010;-37
2024/04/15 00:55:11;;;;;;;5.00;1.58;;;11.80;65.00;;;;;;5486707;26;20074;-35
2024/04/15 00:57:39;;;;;;;3.08;1.30;;;11.80;65.50;;;;;;5486775;26;20027;-37
2024/04/15 01:00:06;;;;;;;5.28;1.48;;;11.80;66.00;;;;;;5486680;26;20014;-36
2024/04/15 01:02:32;;;;;;;5.20;1.50;;;11.70;66.30;;;;;;5486158;26;20042;-35
2024/04/15 01:04:58;;;;;;;6.68;1.80;;;11.70;66.70;;;;;;5486584;26;19994;-37
2024/04/15 01:07:24;;;;;;;4.03;1.73;;;11.70;67.00;;;;;;5486017;26;20006;-36
2024/04/15 01:09:51;;;;;;;3.55;1.60;;;11.70;67.30;;;;;;5484672;26;20388;-45
2024/04/15 01:12:16;;;;;;;5.90;1.83;;;11.70;67.70;;;;;;5486178;26;19998;-37
2024/04/15 01:14:42;;;;;;;4.80;2.13;;;11.60;68.00;;;;;;5486523;26;19999;-36
2024/04/15 01:17:07;;;;;;;4.93;1.77;;;11.60;68.30;;;;;;5486257;26;19994;-37
2024/04/15 01:19:33;;;;;;;7.25;2.13;;;11.60;68.50;;;;;;5486312;26;20466;-36
2024/04/15 01:21:58;;;;;;;4.53;1.58;;;11.60;68.90;;;;;;5486135;26;20002;-35
2024/04/15 01:24:24;;;;;;;5.50;2.10;;;11.60;69.20;;;;;;5486103;26;20070;-36
2024/04/15 01:26:50;;;;;;;3.72;1.70;;;11.50;69.40;;;;;;5486834;26;20010;-35
2024/04/15 01:29:15;;;;;;;4.15;1.70;;;11.60;69.70;;;;;;5489774;26;19998;-41
2024/04/15 01:31:41;;;;;;;3.45;1.73;;;11.50;69.80;;;;;;5489786;26;20466;-34
2024/04/15 01:34:06;;;;;;;4.55;2.00;;;11.60;70.00;;;;;;5489515;26;19998;-35
2024/04/15 01:36:32;;;;;;;4.45;1.80;;;11.60;70.20;;;;;;5489360;26;20002;-31
2024/04/15 01:38:57;;;;;;;6.07;2.10;;;11.60;70.50;;;;;;5489581;26;20078;-36
2024/04/15 01:41:23;;;;;;;5.22;1.83;;;11.60;70.70;;;;;;5489008;26;20005;-35
2024/04/15 01:43:49;;;;;;;3.75;1.70;;;11.50;70.90;;;;;;5489419;26;20005;-37
2024/04/15 01:46:14;;;;;;;6.30;1.70;;;11.60;71.10;;;;;;5489394;26;20099;-36
2024/04/15 01:48:40;;;;;;;4.15;1.65;;;11.50;71.20;;;;;;5489675;26;20012;-36
2024/04/15 01:51:05;;;;;;;6.95;2.10;;;11.50;71.30;;;;;;5489486;26;20014;-36
2024/04/15 01:53:31;;;;;;;6.72;2.17;;;11.50;71.50;;;;;;5489451;26;20002;-36
2024/04/15 01:55:57;;;;;;;6.35;2.20;;;11.50;71.60;;;;;;5489722;26;19998;-37
2024/04/15 01:58:23;;;;;;;4.82;1.90;;;11.60;71.80;;;;;;5489493;26;19998;-36
2024/04/15 02:00:48;;;;;;;6.22;1.80;;;11.50;71.90;;;;;;5489418;26;20009;-36
2024/04/15 02:03:14;;;;;;;3.85;1.80;;;11.60;71.90;;;;;;5487448;26;19998;-36
2024/04/15 02:05:40;;;;;;;6.70;2.35;;;11.50;72.70;;;;;;5489441;26;19998;-37
2024/04/15 02:08:05;;;;;;;7.57;2.22;;;11.50;72.10;;;;;;5489212;26;20002;-36
2024/04/15 02:10:31;;;;;;;4.70;1.90;;;11.50;72.30;;;;;;5489104;26;20041;-38
2024/04/15 02:12:56;;;;;;;4.32;1.98;;;11.40;72.40;;;;;;5489314;26;19994;-37
2024/04/15 02:15:22;;;;;;;4.82;2.20;;;11.40;72.40;;;;;;5489205;26;20458;-36
2024/04/15 02:17:47;;;;;;;3.47;1.60;;;11.40;72.30;;;;;;5489435;26;20319;-37
2024/04/15 02:20:13;;;;;;;5.95;2.17;;;11.40;72.40;;;;;;5489057;26;20355;-36
2024/04/15 02:22:39;;;;;;;6.28;2.10;;;11.40;72.30;;;;;;5489072;26;20420;-37
2024/04/15 02:25:04;;;;;;;4.35;2.13;;;11.40;72.30;;;;;;5489141;26;20014;-36
2024/04/15 02:27:35;;;;;;;5.95;1.95;;;11.40;72.30;;;;;;5488748;26;19998;-36
2024/04/15 02:30:02;;;;;;;3.95;2.33;;;11.40;72.30;;;;;;5488776;26;20082;-43
2024/04/15 02:32:27;;;;;;;3.60;2.05;;;11.40;72.30;;;;;;5488606;26;20010;-51
2024/04/15 02:34:53;;;;;;;5.68;1.95;;;11.40;72.40;;;;;;5488739;26;20012;-37
2024/04/15 02:37:19;;;;;;;4.80;1.92;;;11.40;72.40;;;;;;5488575;26;20009;-36
2024/04/15 02:39:44;;;;;;;6.80;2.28;;;11.40;72.40;;;;;;5488553;26;20343;-36
2024/04/15 02:42:10;;;;;;;6.28;2.05;;;11.40;72.40;;;;;;5486717;26;19998;-36
2024/04/15 02:44:35;;;;;;;6.82;2.00;;;11.40;72.40;;;;;;5488575;26;20388;-37
2024/04/15 02:47:01;;;;;;;5.15;1.88;;;11.40;72.40;;;;;;5488906;26;20050;-36
2024/04/15 02:49:26;;;;;;;5.88;2.17;;;11.40;72.40;;;;;;5488692;26;20078;-38
2024/04/15 02:51:52;;;;;;;5.85;2.00;;;11.40;72.50;;;;;;5486688;26;20006;-35
2024/04/15 02:54:18;;;;;;;7.88;2.58;;;11.40;72.60;;;;;;5488507;26;20343;-38
2024/04/15 02:56:43;;;;;;;4.63;2.00;;;11.40;72.50;;;;;;5488780;26;19994;-36
2024/04/15 02:59:09;;;;;;;6.18;2.40;;;11.40;72.50;;;;;;5488668;26;20091;-36
2024/04/15 03:01:34;;;;;;;6.50;2.38;;;11.40;72.60;;;;;;5488226;26;20078;-36
2024/04/15 03:04:00;;;;;;;8.10;2.60;;;11.30;72.60;;;;;;5488605;26;20079;-37
2024/04/15 03:06:26;;;;;;;6.03;2.70;;;11.30;72.70;;;;;;5488253;26;20453;-45
2024/04/15 03:08:51;;;;;;;8.27;3.00;;;11.30;72.60;;;;;;5488245;26;20013;-36
2024/04/15 03:11:17;;;;;;;5.82;2.67;;;11.30;72.70;;;;;;5488301;26;20099;-37
2024/04/15 03:13:42;;;;;;;5.97;2.60;;;11.30;72.80;;;;;;5488609;26;20014;-36
2024/04/15 03:16:08;;;;;;;7.60;2.83;;;11.20;72.80;;;;;;5486588;26;20066;-37
2024/04/15 03:18:34;;;;;;;4.82;2.35;;;11.30;72.80;;;;;;5486619;26;20025;-36
2024/04/15 03:21:08;;;;;;;7.47;2.75;;;11.30;72.80;;;;;;5488395;26;20041;-36
2024/04/15 03:23:34;;;;;;;6.45;2.78;;;11.30;72.80;;;;;;5488323;26;19998;-35
2024/04/15 03:26:00;;;;;;;8.48;2.53;;;11.30;72.80;;;;;;5488361;26;20002;-36
2024/04/15 03:28:26;;;;;;;9.43;2.75;;;11.30;72.80;;;;;;5485980;26;20009;-36
2024/04/15 03:30:51;;;;;;;6.38;2.90;;;11.30;72.80;;;;;;5487733;26;20396;-36
2024/04/15 03:33:17;;;;;;;5.95;2.53;;;11.20;72.80;;;;;;5487741;26;20002;-36
2024/04/15 03:35:43;;;;;;;5.78;2.60;;;11.20;73.00;;;;;;5488024;26;20070;-39
2024/04/15 03:38:08;;;;;;;4.82;2.50;;;11.20;72.90;;;;;;5487668;26;20121;-40
2024/04/15 03:40:34;;;;;;;8.45;3.00;;;11.20;72.90;;;;;;5487616;26;20014;-34
2024/04/15 03:43:02;;;;;;;6.00;2.83;;;11.20;73.00;;;;;;5487710;26;20017;-37
2024/04/15 03:45:28;;;;;;;5.70;3.08;;;11.20;73.00;;;;;;5487457;26;19998;-36
2024/04/15 03:47:53;;;;;;;7.45;2.88;;;11.10;73.00;;;;;;5487418;26;20017;-37
2024/04/15 03:50:20;;;;;;;5.78;2.70;;;11.10;73.20;;;;;;5486365;26;20017;-34
2024/04/15 03:52:46;;;;;;;3.92;2.60;;;11.10;73.20;;;;;;5487408;26;20006;-37
2024/04/15 03:55:11;;;;;;;7.40;2.95;;;11.10;73.30;;;;;;5487397;26;20013;-35
2024/04/15 03:57:37;;;;;;;7.07;2.88;;;11.00;73.40;;;;;;5487327;26;20037;-36
2024/04/15 04:00:03;;;;;;;7.13;3.10;;;10.90;73.50;;;;;;5487583;26;20455;-38
2024/04/15 04:02:28;;;;;;;6.00;3.20;;;10.90;73.60;;;;;;5485313;26;20450;-37
2024/04/15 04:04:54;;;;;;;8.10;2.92;;;10.90;73.80;;;;;;5487227;26;20017;-36
2024/04/15 04:07:21;;;;;;;6.10;3.10;;;10.80;73.80;;;;;;5487062;26;19998;-37
2024/04/15 04:09:47;;;;;;;7.28;3.00;;;10.80;73.80;;;;;;5487120;26;19998;-37
2024/04/15 04:12:13;;;;;;;5.70;2.95;;;10.80;74.00;;;;;;5487345;26;20385;-36
2024/04/15 04:14:38;;;;;;;6.50;2.97;;;10.70;74.00;;;;;;5487323;26;20006;-37
2024/04/15 04:17:04;;;;;;;7.53;3.10;;;10.70;74.00;;;;;;5487162;26;20014;-37
2024/04/15 04:19:30;;;;;;;8.25;3.47;;;10.70;74.10;;;;;;5487348;26;20009;-36
2024/04/15 04:21:56;;;;;;;7.55;4.07;;;10.70;74.10;;;;;;5486951;26;20002;-47
2024/04/15 04:24:22;;;;;;;8.00;3.03;;;10.70;74.20;;;;;;5487065;26;20012;-36
2024/04/15 04:26:47;;;;;;;9.68;3.47;;;10.70;74.20;;;;;;5487129;26;19995;-37
2024/04/15 04:29:13;;;;;;;7.03;3.00;;;10.70;74.30;;;;;;5486952;26;20009;-37
2024/04/15 04:31:39;;;;;;;9.25;3.42;;;10.70;74.30;;;;;;5486824;26;20008;-43
2024/04/15 04:34:04;;;;;;;8.52;3.67;;;10.70;74.40;;;;;;5486956;26;20014;-35
2024/04/15 04:36:30;;;;;;;8.30;3.30;;;10.70;74.40;;;;;;5486901;26;19998;-36
2024/04/15 04:38:55;;;;;;;6.30;3.33;;;10.70;74.40;;;;;;5486570;26;20009;-37
2024/04/15 04:41:21;;;;;;;10.25;3.53;;;10.60;74.50;;;;;;5486427;26;20515;-38
2024/04/15 04:43:47;;;;;;;8.32;3.17;;;10.60;74.50;;;;;;5486703;26;20008;-38
2024/04/15 04:46:13;;;;;;;7.07;3.17;;;10.70;74.60;;;;;;5486920;26;20005;-36
2024/04/15 04:48:39;;;;;;;8.85;3.65;;;10.60;74.60;;;;;;5487045;26;19998;-37
2024/04/15 04:51:09;;;;;;;8.75;3.38;;;10.60;74.60;;;;;;5487081;26;19994;-34
2024/04/15 04:53:35;;;;;;;9.18;3.30;;;10.60;74.70;;;;;;5486878;26;20005;-36
2024/04/15 04:56:11;;;;;;;6.80;3.15;;;10.60;74.70;;;;;;5486977;26;20010;-36
2024/04/15 04:58:41;;;;;;;9.57;3.13;;;10.60;74.80;;;;;;5486934;26;19998;-37
2024/04/15 05:01:17;;;;;;;8.25;3.13;;;10.50;74.90;;;;;;5486745;26;19998;-37
2024/04/15 05:03:45;;;;;;;6.95;2.85;;;10.50;75.00;;;;;;5489914;26;20005;-34
2024/04/15 05:06:12;;;;;;;6.13;2.65;;;10.50;75.10;;;;;;5490378;26;20023;-36
2024/04/15 05:08:39;;;;;;;5.90;2.90;;;10.50;75.00;;;;;;5489863;26;20466;-36
2024/04/15 05:11:05;;;;;;;8.48;2.97;;;10.60;75.10;;;;;;5490014;26;19994;-37
2024/04/15 05:13:31;;;;;;;8.18;3.38;;;10.60;75.10;;;;;;5490422;26;19998;-35
2024/04/15 05:16:11;;;;;;;7.90;3.03;;;10.60;75.10;;;;;;5490310;26;20009;-37
2024/04/15 05:18:38;;;;;;;7.30;2.92;;;10.60;75.20;;;;;;5490070;26;19994;-37
2024/04/15 05:21:05;;;;;;;6.32;2.90;;;10.50;75.20;;;;;;5489949;26;20339;-36
2024/04/15 05:23:31;;;;;;;9.90;3.28;;;10.50;75.40;;;;;;5489866;26;20441;-35
2024/04/15 05:26:00;;;;;;;6.53;2.88;;;10.50;75.60;;;;;;5490067;26;20311;-37
2024/04/15 05:28:26;;;;;;;7.30;2.60;;;10.40;75.60;;;;;;5490058;26;20416;-36
2024/04/15 05:30:53;;;;;;;8.35;3.10;;;10.40;75.70;;;;;;5489545;26;19994;-37
2024/04/15 05:33:20;;;;;;;8.10;2.90;;;10.40;75.90;;;;;;5489924;26;20002;-37
2024/04/15 05:35:45;;;;;;;7.93;3.25;;;10.30;75.90;;;;;;5489318;26;20002;-36
2024/04/15 05:38:11;;;;;;;7.95;2.63;;;10.30;76.00;;;;;;5489343;26;20008;-35
2024/04/15 05:40:37;;;;;;;10.20;3.45;;;10.40;76.10;;;;;;5489428;26;20074;-37
2024/04/15 05:43:07;;;;;;;7.88;3.10;;;10.40;76.10;;;;;;5489870;26;19998;-37
2024/04/15 05:45:32;;;;;;;7.47;2.90;;;10.50;76.00;;;;;;5489647;26;20018;-37
2024/04/15 05:47:58;;;;;;;9.18;2.67;;;10.50;76.00;;;;;;5489670;26;19998;-38
2024/04/15 05:50:24;;;;;;;9.70;3.13;;;10.60;76.00;;;;;;5489311;26;20013;-35
2024/04/15 05:52:49;;;;;;;5.80;2.88;;;10.50;76.70;;;;;;5489784;26;19998;-36
2024/04/15 05:55:15;;;;;;;7.28;2.60;;;10.50;76.20;;;;;;5489589;26;20009;-35
2024/04/15 05:57:41;;;;;;;12.20;3.40;;;10.50;76.20;;;;;;5489043;26;19998;-32
2024/04/15 06:00:07;;;;;;;6.72;2.45;;;10.50;76.30;;;;;;5489208;26;20034;-36
2024/04/15 06:02:32;;;;;;;7.75;2.42;;;10.60;76.30;;;;;;5489159;26;20002;-36
2024/04/15 06:04:58;;;;;;;10.15;2.92;;;10.60;76.40;;;;;;5489854;26;20013;-36
2024/04/15 06:07:23;;;;;;;6.30;2.45;;;10.60;76.60;;;;;;5488994;26;20021;-38
2024/04/15 06:09:50;;;;;;;7.10;2.67;;;10.60;76.60;;;;;;5487470;26;19998;-41
2024/04/15 06:12:16;;;;;;;7.82;2.95;;;10.70;76.50;;;;;;5486685;26;20074;-35
2024/04/15 06:14:41;;;;;;;9.25;2.50;;;10.70;76.30;;;;;;5489332;26;19994;-36
2024/04/15 06:17:07;;;;;;;8.57;2.78;;;10.80;76.20;;;;;;5489523;26;20401;-35
2024/04/15 06:19:33;;;;;;;7.03;2.47;;;10.80;76.20;;;;;;5489398;26;20010;-36
2024/04/15 06:22:00;;;;;;;7.18;3.10;;;10.80;76.20;;;;;;5489069;26;20002;-36
2024/04/15 06:24:26;;;;;;;5.32;2.58;;;10.80;76.20;;;;;;5489180;26;20017;-36
2024/04/15 06:26:52;;;;;;;6.93;2.40;;;10.80;76.30;;;;;;5489307;26;20002;-35
2024/04/15 06:29:18;;;;;;;8.30;2.75;;;10.70;76.40;;;;;;5488806;26;20431;-35
2024/04/15 06:31:44;;;;;;;7.63;2.70;;;10.70;76.70;;;;;;5488591;26;20009;-35
2024/04/15 06:34:10;;;;;;;5.72;2.40;;;10.60;76.70;;;;;;5488639;26;19998;-36
2024/04/15 06:36:35;;;;;;;7.38;2.40;;;10.70;76.80;;;;;;5488726;26;19994;-34
2024/04/15 06:39:01;;;;;;;8.23;2.65;;;10.70;76.90;;;;;;5488747;26;20070;-35
2024/04/15 06:41:27;;;;;;;9.43;2.55;;;10.70;77.00;;;;;;5488374;26;19998;-36
2024/04/15 06:43:52;;;;;;;10.32;3.13;;;10.70;77.00;;;;;;5488672;26;19998;-41
2024/04/15 06:46:18;;;;;;;6.90;2.55;;;10.70;77.10;;;;;;5488743;26;20014;-36
2024/04/15 06:48:44;;;;;;;6.10;2.58;;;10.70;77.20;;;;;;5487290;26;20450;-41
2024/04/15 06:51:10;;;;;;;8.32;2.72;;;10.70;77.00;;;;;;5488633;26;20002;-35
2024/04/15 06:53:36;;;;;;;10.88;3.00;;;10.80;77.00;;;;;;5488894;26;20006;-36
2024/04/15 06:56:02;;;;;;;7.75;2.35;;;10.80;76.90;;;;;;5488997;26;20066;-35
2024/04/15 06:58:28;;;;;;;9.27;2.90;;;10.90;76.80;;;;;;5488645;26;20002;-36
2024/04/15 07:00:58;;;;;;;5.72;2.38;;;10.90;76.80;;;;;;5488412;26;19994;-36
2024/04/15 07:03:23;;;;;;;7.10;2.70;;;11.00;76.80;;;;;;5488318;26;20002;-34
2024/04/15 07:05:49;;;;;;;10.23;2.95;;;11.00;76.60;;;;;;5488796;26;20004;-36
2024/04/15 07:08:15;;;;;;;10.43;2.75;;;11.00;76.70;;;;;;5488196;26;19999;-35
2024/04/15 07:10:41;;;;;;;10.85;3.15;;;10.90;76.70;;;;;;5488448;26;20074;-36
2024/04/15 07:13:07;;;;;;;8.88;3.10;;;11.00;76.80;;;;;;5488587;26;20392;-37
2024/04/15 07:15:33;;;;;;;13.07;3.25;;;11.00;76.70;;;;;;5489333;26;19998;-37
2024/04/15 07:17:59;;;;;;;8.30;2.63;;;11.00;76.50;;;;;;5487275;26;20067;-37
2024/04/15 07:20:25;;;;;;;8.43;2.85;;;11.10;76.30;;;;;;5488144;26;20442;-37
2024/04/15 07:22:51;;;;;;;12.07;3.35;;;11.20;76.20;;;;;;5488334;26;20002;-36
2024/04/15 07:25:16;;;;;;;11.80;3.33;;;11.20;76.00;;;;;;5487100;26;20069;-34
2024/04/15 07:27:42;;;;;;;8.73;3.00;;;11.30;75.90;;;;;;5488575;26;20409;-34
2024/04/15 07:30:08;;;;;;;7.28;2.78;;;11.40;75.60;;;;;;5487908;26;20438;-44
2024/04/15 07:32:34;;;;;;;7.25;3.58;;;11.40;75.50;;;;;;5487821;26;20002;-35
2024/04/15 07:35:00;;;;;;;11.40;3.15;;;11.60;75.30;;;;;;5487992;26;20005;-37
2024/04/15 07:37:25;;;;;;;7.32;2.20;;;11.80;75.00;;;;;;5487497;26;19994;-35
2024/04/15 07:39:51;;;;;;;8.63;2.78;;;11.90;74.60;;;;;;5487959;26;19998;-36
2024/04/15 07:42:17;;;;;;;7.72;2.63;;;12.00;74.20;;;;;;5487779;26;20047;-37
2024/04/15 07:44:46;;;;;;;6.75;2.20;;;12.10;73.90;;;;;;5487824;26;20030;-36
2024/04/15 07:47:12;;;;;;;6.85;2.33;;;12.10;73.60;;;;;;5488133;26;20074;-36
2024/04/15 07:49:37;;;;;;;7.85;2.53;;;12.20;73.60;;;;;;5487766;26;20038;-36
2024/04/15 07:52:03;;;;;;;6.88;2.45;;;12.20;73.20;;;;;;5487446;26;20415;-34
2024/04/15 07:54:29;;;;;;;6.30;2.38;;;12.30;73.20;;;;;;5488043;26;20409;-37
2024/04/15 07:56:54;;;;;;;9.20;2.72;;;12.40;72.90;;;;;;5487690;26;20009;-36
2024/04/15 07:59:20;;;;;;;6.70;2.40;;;12.40;72.50;;;;;;5487715;26;20002;-37
2024/04/15 08:01:45;;;;;;;8.77;2.30;;;12.40;72.30;;;;;;5487157;26;20013;-37
2024/04/15 08:04:11;;;;;;;9.32;2.70;;;12.40;72.30;;;;;;5487366;26;20013;-37
2024/04/15 08:06:37;;;;;;;6.63;2.42;;;12.40;72.20;;;;;;5487186;26;19998;-36
2024/04/15 08:09:03;;;;;;;11.13;3.28;;;12.50;72.20;;;;;;5487212;26;20009;-35
2024/04/15 08:11:29;;;;;;;6.60;2.50;;;12.60;71.90;;;;;;5487169;26;20121;-37
2024/04/15 08:13:54;;;;;;;7.18;2.35;;;12.60;71.40;;;;;;5487151;26;20633;-36
2024/04/15 08:16:20;;;;;;;10.95;2.90;;;12.60;71.50;;;;;;5487248;26;19998;-39
2024/04/15 08:18:48;;;;;;;11.50;2.47;;;12.70;71.30;;;;;;5487345;26;20077;-37
2024/04/15 08:21:14;;;;;;;7.75;2.22;;;12.80;71.00;;;;;;5486917;26;20013;-35
2024/04/15 08:23:39;;;;;;;6.80;2.13;;;12.80;70.50;;;;;;5487422;26;20343;-36
2024/04/15 08:26:08;;;;;;;7.25;2.55;;;12.90;70.30;;;;;;5487164;26;20053;-34
2024/04/15 08:28:33;;;;;;;8.48;2.75;;;12.90;69.60;;;;;;5486995;26;20035;-36
2024/04/15 08:30:59;;;;;;;11.55;2.53;;;12.80;69.40;;;;;;5486818;26;20009;-36
2024/04/15 08:33:25;;;;;;;6.00;2.50;;;12.90;69.50;;;;;;5486958;26;20031;-36
2024/04/15 08:35:51;;;;;;;9.88;2.97;;;12.90;69.40;;;;;;5486799;26;19998;-36
2024/04/15 08:38:17;;;;;;;7.85;2.60;;;13.00;69.30;;;;;;5486739;26;20002;-36
2024/04/15 08:40:52;;;;;;;5.75;3.03;;;12.90;68.60;;;;;;5486761;26;20012;-36
2024/04/15 08:43:24;;;;;;;6.38;2.80;;;12.90;68.50;;;;;;5486865;26;20013;-36
2024/04/15 08:46:02;;;;;;;7.40;2.40;;;12.90;68.60;;;;;;5486889;26;20002;-36
2024/04/15 08:48:28;;;;;;;10.65;3.38;;;13.00;68.40;;;;;;5487062;26;20507;-36
2024/04/15 08:51:00;;;;;;;6.60;2.55;;;13.10;68.00;;;;;;5486940;26;19998;-35
2024/04/15 08:53:26;;;;;;;6.18;2.67;;;13.10;67.90;;;;;;5486721;26;20013;-36
2024/04/15 08:55:51;;;;;;;7.97;2.42;;;13.10;67.80;;;;;;5487189;26;20009;-35
2024/04/15 08:58:17;;;;;;;7.03;2.55;;;13.20;67.90;;;;;;5485081;26;20330;-37
2024/04/15 09:00:44;;;;;;;7.38;2.70;;;13.30;67.50;;;;;;5486869;26;20002;-36
2024/04/15 09:03:11;;;;;;;9.15;2.47;;;13.40;67.30;;;;;;5486152;26;20088;-36
2024/04/15 09:05:37;;;;;;;5.70;2.70;;;13.50;66.70;;;;;;5486586;26;20006;-38
2024/04/15 09:08:03;;;;;;;7.85;2.45;;;13.50;66.40;;;;;;5486433;26;20005;-36
2024/04/15 09:10:28;;;;;;;7.28;2.65;;;13.60;66.40;;;;;;5486220;26;20002;-36
2024/04/15 09:12:56;;;;;;;8.30;2.25;;;13.70;66.00;;;;;;5486642;26;20013;-37
2024/04/15 09:15:25;;;;;;;9.45;2.42;;;13.70;65.70;;;;;;5484908;26;19994;-37
2024/04/15 09:17:52;;;;;;;5.70;2.00;;;13.70;65.60;;;;;;5486713;26;20020;-36
2024/04/15 09:20:19;;;;;;;6.03;2.50;;;13.70;65.40;;;;;;5486513;26;19994;-33
2024/04/15 09:22:45;;;;;;;7.00;2.38;;;13.70;65.20;;;;;;5486453;26;20050;-36
2024/04/15 09:25:10;;;;;;;6.80;2.63;;;13.70;64.90;;;;;;5486511;26;20043;-37
2024/04/15 09:27:36;;;;;;;6.50;2.00;;;13.80;65.00;;;;;;5486435;26;20009;-36
2024/04/15 09:30:03;;;;;;;6.03;1.83;;;13.90;64.60;;;;;;5486820;26;20002;-35
2024/04/15 09:32:29;;;;;;;5.00;1.83;;;14.00;64.50;;;;;;5486089;26;19998;-36
2024/04/15 09:35:03;;;;;;;4.80;2.05;;;14.20;64.40;;;;;;5486704;26;20395;-35
2024/04/15 09:37:31;;;;;;;6.28;1.83;;;14.30;63.10;;;;;;5486185;26;20070;-36
2024/04/15 09:39:57;;;;;;;3.40;1.50;;;14.20;63.40;;;;;;5486292;26;20002;-37
2024/04/15 09:42:23;;;;;;;4.15;1.55;;;14.40;63.60;;;;;;5486068;26;20013;-36
2024/04/15 09:44:50;;;;;;;5.50;1.70;;;14.40;63.70;;;;;;5486452;26;20013;-38
2024/04/15 09:47:16;;;;;;;4.70;1.60;;;14.50;63.70;;;;;;5486600;26;20002;-38
2024/04/15 09:49:43;;;;;;;4.45;1.70;;;14.50;63.70;;;;;;5490422;26;20010;-36
2024/04/15 09:52:17;;;;;;;7.10;1.67;;;14.40;63.70;;;;;;5489831;26;19998;-37
2024/04/15 09:54:45;;;;;;;6.75;1.70;;;14.40;64.20;;;;;;5490393;26;20077;-37
2024/04/15 09:57:14;;;;;;;4.70;1.60;;;14.40;63.30;;;;;;5490088;26;20327;-39
2024/04/15 09:59:43;;;;;;;4.97;1.45;;;14.30;63.10;;;;;;5490088;26;20002;-38
2024/04/15 10:02:34;;;;;;;5.72;1.60;;;14.20;62.70;;;;;;5489672;26;20072;-36
2024/04/15 10:05:10;;;;;;;5.38;1.77;;;14.20;62.80;;;;;;5490191;26;19998;-36
2024/04/15 10:07:39;;;;;;;6.30;1.95;;;14.20;62.60;;;;;;5489779;26;20062;-36
2024/04/15 10:10:07;;;;;;;4.15;1.60;;;14.10;62.30;;;;;;5489894;26;20034;-36
2024/04/15 10:12:33;;;;;;;3.45;1.38;;;14.00;62.40;;;;;;5489735;26;19998;-38
2024/04/15 10:14:59;;;;;;;3.63;1.38;;;13.90;62.50;;;;;;5489955;26;20002;-37
2024/04/15 10:17:26;;;;;;;2.90;1.50;;;13.80;62.90;;;;;;5489948;26;20070;-36
2024/04/15 10:19:52;;;;;;;4.38;1.20;;;13.70;63.30;;;;;;5490060;26;20002;-38
2024/04/15 10:22:17;;;;;;;5.90;1.40;;;13.80;63.60;;;;;;5489688;26;20012;-36
2024/04/15 10:24:43;;;;;;;2.78;1.20;;;13.80;63.70;;;;;;5490001;26;19999;-36
2024/04/15 10:27:10;;;;;;;7.00;1.00;;;13.80;63.40;;;;;;5489750;26;20013;-36
2024/04/15 10:29:38;;;;;;;7.20;1.40;;;13.80;63.60;;;;;;5489246;26;20006;-37
2024/04/15 10:32:07;;;;;;;4.22;1.50;;;13.80;63.70;;;;;;5488929;26;20068;-36
2024/04/15 10:34:39;;;;;;;4.18;1.48;;;13.60;63.60;;;;;;5489379;26;20370;-36
2024/04/15 10:37:10;;;;;;;6.88;1.63;;;13.50;64.10;;;;;;5488930;26;19998;-35
2024/04/15 10:39:44;;;;;;;4.07;1.50;;;13.40;65.20;;;;;;5489244;26;20009;-36
2024/04/15 10:42:09;;;;;;;;;;;13.40;65.80;;;;;;5489488;26;20002;-37
2024/04/15 10:44:35;;;;;;;5.47;1.55;;;13.50;66.60;;;;;;5489002;26;19940;-35
2024/04/15 10:47:01;;;;;;;4.72;1.30;;;13.50;66.50;;;;;;5489324;26;20002;-37
2024/04/15 10:49:28;;;;;;;5.68;1.40;;;13.50;66.60;;;;;;5489157;26;20070;-36
2024/04/15 10:51:54;;;;;;;4.82;1.45;;;13.50;66.80;;;;;;5489571;26;19998;-37
2024/04/15 10:54:20;;;;;;;3.58;1.30;;;13.50;66.90;;;;;;5489129;26;20059;-37
2024/04/15 10:56:47;;;;;;;3.90;1.27;;;13.40;67.20;;;;;;5489321;26;20002;-37
2024/04/15 10:59:15;;;;;;;2.95;1.30;;;13.20;67.50;;;;;;5489367;26;20004;-36
2024/04/15 11:01:46;;;;;;;4.03;1.40;;;13.10;68.00;;;;;;5488907;26;19998;-37
2024/04/15 11:04:12;;;;;;;4.82;1.48;;;13.10;68.60;;;;;;5489514;26;20002;-38
2024/04/15 11:06:37;;;;;;;5.00;1.30;;;13.00;69.10;;;;;;5489372;26;20447;-37
2024/04/15 11:09:04;;;;;;;3.47;1.40;;;12.90;69.20;;;;;;5487303;26;20396;-37
2024/04/15 11:11:32;;;;;;;3.28;1.42;;;12.80;69.70;;;;;;5488978;26;20022;-37
2024/04/15 11:13:58;;;;;;;5.20;1.40;;;12.80;69.90;;;;;;5489110;26;20495;-37
2024/04/15 11:16:24;;;;;;;3.58;1.42;;;12.70;70.30;;;;;;5488939;26;20013;-36
2024/04/15 11:18:50;;;;;;;2.50;1.25;;;12.60;70.60;;;;;;5488916;26;20006;-37
2024/04/15 11:21:19;;;;;;;3.03;1.38;;;12.60;71.10;;;;;;5488786;26;20305;-36
2024/04/15 11:23:45;;;;;;;7.07;1.40;;;12.50;71.40;;;;;;5488765;26;19998;-36
2024/04/15 11:26:13;;;;;;;4.65;1.48;;;12.50;71.50;;;;;;5489196;26;20355;-38
2024/04/15 11:28:39;;;;;;;4.93;1.77;;;12.60;71.60;;;;;;5488598;26;20330;-36
2024/04/15 11:31:05;;;;;;;5.72;1.90;;;12.60;71.60;;;;;;5488599;26;19994;-35
2024/04/15 11:33:31;;;;;;;5.60;1.80;;;12.60;71.80;;;;;;5488544;26;20013;-38
2024/04/15 11:35:57;;;;;;;3.58;1.55;;;12.50;72.20;;;;;;5488600;26;20052;-42
2024/04/15 11:38:24;;;;;;;6.20;1.52;;;12.50;72.50;;;;;;5488425;26;20018;-36
2024/04/15 11:40:51;;;;;;;3.83;1.40;;;12.40;72.80;;;;;;5488826;26;20005;-39
2024/04/15 11:43:18;;;;;;;6.38;1.70;;;12.30;73.20;;;;;;5488288;26;20338;-36
2024/04/15 11:45:50;;;;;;;5.30;2.10;;;12.20;73.70;;;;;;5488345;26;19998;-38
2024/04/15 11:48:16;;;;;;;5.10;1.85;;;12.20;74.30;;;;;;5488709;26;20567;-36
2024/04/15 11:50:42;;;;;;;8.65;1.45;;;12.10;74.50;;;;;;5488610;26;20022;-42
2024/04/15 11:53:09;;;;;;;3.63;1.25;;;12.10;75.00;;;;;;5488335;26;20450;-39
2024/04/15 11:55:35;;;;;;;5.40;1.40;;;12.20;75.20;;;;;;5488556;26;19994;-36
2024/04/15 11:58:00;;;;;;;4.75;1.40;;;12.20;75.80;;;;;;5488367;26;20430;-36
2024/04/15 12:00:26;;;;;;;4.70;1.67;;;12.20;75.70;;;;;;5488433;26;19998;-36
2024/04/15 12:02:52;;;;;;;3.53;1.35;;;12.10;75.90;;;;;;5488236;26;20058;-37
2024/04/15 12:05:17;;;;;;;5.30;1.67;;;12.00;76.20;;;;;;5488285;26;20024;-36
2024/04/15 12:07:43;;;;;;;4.88;1.40;;;12.00;76.90;;;;;;5486150;26;19998;-35
2024/04/15 12:10:10;;;;;;;3.38;1.00;;;11.90;77.40;;;;;;5487514;26;20041;-36
2024/04/15 12:12:37;;;;;;;3.55;1.23;;;11.90;77.50;;;;;;5488122;26;20484;-34
2024/04/15 12:15:05;;;;;;;4.97;1.42;;;11.90;77.80;;;;;;5488537;26;19994;-37
2024/04/15 12:17:30;;;;;;;3.95;1.30;;;11.90;77.80;;;;;;5488152;26;20443;-36
2024/04/15 12:19:56;;;;;;;4.15;1.83;;;12.00;78.10;;;;;;5487827;26;20013;-39
2024/04/15 12:22:21;;;;;;;4.07;1.30;;;12.00;78.10;;;;;;5488048;26;20005;-36
2024/04/15 12:24:47;;;;;;;4.40;1.33;;;12.20;78.10;;;;;;5487796;26;19998;-35
2024/04/15 12:27:13;;;;;;;4.53;1.33;;;12.30;78.10;;;;;;5487820;26;20066;-37
2024/04/15 12:29:39;;;;;;;3.38;1.13;;;12.50;78.00;;;;;;5487610;26;20384;-35
2024/04/15 12:32:04;;;;;;;4.15;1.52;;;12.70;78.40;;;;;;5487816;26;19994;-36
2024/04/15 12:34:32;;;;;;;4.13;1.13;;;12.80;77.60;;;;;;5487843;26;20002;-36
2024/04/15 12:36:58;;;;;;;3.97;1.40;;;12.90;77.30;;;;;;5488206;26;20009;-36
2024/04/15 12:39:24;;;;;;;3.53;1.38;;;12.90;76.90;;;;;;5487797;26;20002;-36
2024/04/15 12:41:50;;;;;;;2.75;1.20;;;12.80;76.90;;;;;;5487663;26;20034;-36